Time;durP1;ratioP1;P1;durP2;ratioP2;P2;SDS_P1;SDS_P2;PMS_P1;PMS_P2;Temp;Humidity;BMP_temperature;BMP_pressure;BME280_temperature;BME280_humidity;BME280_pressure;Samples;Min_cycle;Max_cycle;Signal;HPM_P1;HPM_P2
2023/09/16 00:08:43;;;;;;;6.9;4;;;;;;;10.69;89;;;;;
2023/09/16 00:18:44;;;;;;;6.9;4;;;;;;;10.51;89.07;;;;;
2023/09/16 00:29:44;;;;;;;9.2;3.8;;;;;;;10.46;88.46;;;;;
2023/09/16 00:40:43;;;;;;;9.2;3.8;;;;;;;10.28;87.91;;;;;
2023/09/16 00:50:43;;;;;;;9.2;3.8;;;;;;;10.17;88.64;;;;;
2023/09/16 01:00:44;;;;;;;6.9;3.1;;;;;;;10.12;89.45;;;;;
2023/09/16 01:11:44;;;;;;;6.9;3.1;;;;;;;10.17;90.46;;;;;
2023/09/16 01:21:44;;;;;;;6.9;3.1;;;;;;;10.09;89.82;;;;;
2023/09/16 01:32:43;;;;;;;9;3.9;;;;;;;10.06;89.96;;;;;
2023/09/16 01:42:44;;;;;;;9;3.9;;;;;;;10.05;90.18;;;;;
2023/09/16 01:53:44;;;;;;;8.9;3.5;;;;;;;10.03;89.95;;;;;
2023/09/16 02:04:44;;;;;;;8.9;3.5;;;;;;;9.92;89.73;;;;;
2023/09/16 02:14:44;;;;;;;8.9;3.5;;;;;;;9.8;89.85;;;;;
2023/09/16 02:25:44;;;;;;;7.7;3.4;;;;;;;9.72;90.61;;;;;
2023/09/16 02:36:44;;;;;;;7.7;3.4;;;;;;;9.63;90.82;;;;;
2023/09/16 02:46:44;;;;;;;7.7;3.4;;;;;;;9.61;90.89;;;;;
2023/09/16 02:56:44;;;;;;;6.5;3.3;;;;;;;9.54;90.95;;;;;
2023/09/16 03:07:44;;;;;;;6.5;3.3;;;;;;;9.46;92.9;;;;;
2023/09/16 03:18:45;;;;;;;6.5;3.3;;;;;;;9.53;92.76;;;;;
2023/09/16 03:29:44;;;;;;;8.5;4.3;;;;;;;9.41;92.25;;;;;
2023/09/16 03:40:44;;;;;;;8.5;4.3;;;;;;;9.37;91.84;;;;;
2023/09/16 03:51:44;;;;;;;8.5;4.3;;;;;;;9.35;91.25;;;;;
2023/09/16 04:01:44;;;;;;;7.2;4.1;;;;;;;9.21;91.08;;;;;
2023/09/16 04:11:44;;;;;;;7.2;4.1;;;;;;;9.15;90.7;;;;;
2023/09/16 04:21:46;;;;;;;7.2;4.1;;;;;;;9.04;90.59;;;;;
2023/09/16 04:32:44;;;;;;;7.2;3.9;;;;;;;9.11;90.99;;;;;
2023/09/16 04:43:49;;;;;;;7.2;3.9;;;;;;;9.11;91.67;;;;;
2023/09/16 04:53:44;;;;;;;8.3;4.7;;;;;;;9.22;93.29;;;;;
2023/09/16 05:04:44;;;;;;;8.3;4.7;;;;;;;9.46;93.94;;;;;
2023/09/16 05:14:46;;;;;;;8.3;4.7;;;;;;;9.69;94.34;;;;;
2023/09/16 05:24:44;;;;;;;12.5;7.1;;;;;;;10.08;94.04;;;;;
2023/09/16 05:35:44;;;;;;;12.5;7.1;;;;;;;10.23;93.17;;;;;
2023/09/16 05:46:44;;;;;;;12.5;7.1;;;;;;;10.53;92.91;;;;;
2023/09/16 05:57:44;;;;;;;9.8;6.2;;;;;;;10.65;92.53;;;;;
2023/09/16 06:08:44;;;;;;;9.8;6.2;;;;;;;10.96;92.81;;;;;
2023/09/16 06:18:44;;;;;;;9.8;6.2;;;;;;;11.54;92.87;;;;;
2023/09/16 06:29:46;;;;;;;12.2;7;;;;;;;12.06;91.45;;;;;
2023/09/16 06:40:44;;;;;;;12.2;7;;;;;;;12.23;90.03;;;;;
2023/09/16 06:51:44;;;;;;;12.2;7;;;;;;;12.23;89.83;;;;;
2023/09/16 07:02:44;;;;;;;11.5;8.7;;;;;;;12.72;87.17;;;;;
2023/09/16 07:13:44;;;;;;;11.5;8.7;;;;;;;12.8;88.14;;;;;
2023/09/16 07:23:44;;;;;;;13.6;9.8;;;;;;;12.98;87.42;;;;;
2023/09/16 07:33:44;;;;;;;13.6;9.8;;;;;;;13.43;86.02;;;;;
2023/09/16 07:43:44;;;;;;;13.6;9.8;;;;;;;13.49;87.05;;;;;
2023/09/16 07:54:44;;;;;;;12.3;9.5;;;;;;;13.38;84.92;;;;;
2023/09/16 08:04:44;;;;;;;12.3;9.5;;;;;;;13.27;86.2;;;;;
2023/09/16 08:14:44;;;;;;;12.3;9.5;;;;;;;13.47;86.63;;;;;
2023/09/16 08:24:44;;;;;;;11.8;9.2;;;;;;;13.91;85;;;;;
2023/09/16 08:35:44;;;;;;;11.8;9.2;;;;;;;14.25;84.07;;;;;
2023/09/16 08:45:44;;;;;;;11.8;9.2;;;;;;;14.02;84.03;;;;;
2023/09/16 08:56:44;;;;;;;12;9;;;;;;;14.38;83.82;;;;;
2023/09/16 09:07:44;;;;;;;12;9;;;;;;;14.92;81.49;;;;;
2023/09/16 09:17:44;;;;;;;12;9;;;;;;;15.18;81.27;;;;;
2023/09/16 09:27:44;;;;;;;12.5;9;;;;;;;15.5;80.73;;;;;
2023/09/16 09:37:44;;;;;;;12.5;9;;;;;;;15.72;80.83;;;;;
2023/09/16 09:47:44;;;;;;;12.5;9;;;;;;;16.27;79.32;;;;;
2023/09/16 09:58:44;;;;;;;13.5;10;;;;;;;16.59;77.97;;;;;
2023/09/16 10:09:44;;;;;;;13.5;10;;;;;;;16.87;77.99;;;;;
2023/09/16 10:19:44;;;;;;;13.5;10;;;;;;;17.48;75.6;;;;;
2023/09/16 10:30:45;;;;;;;12;8.4;;;;;;;17.79;75.31;;;;;
2023/09/16 10:41:44;;;;;;;12;8.4;;;;;;;18.4;72.75;;;;;
2023/09/16 10:52:44;;;;;;;13.9;8.9;;;;;;;18.98;71.75;;;;;
2023/09/16 11:02:44;;;;;;;13.9;8.9;;;;;;;19.25;71.49;;;;;
2023/09/16 11:12:44;;;;;;;13.9;8.9;;;;;;;19.68;72.27;;;;;
2023/09/16 11:23:44;;;;;;;8.9;6;;;;;;;20.21;69.11;;;;;
2023/09/16 11:34:45;;;;;;;8.9;6;;;;;;;20.43;69.59;;;;;
2023/09/16 11:44:44;;;;;;;8.9;6;;;;;;;20.69;69.06;;;;;
2023/09/16 11:55:44;;;;;;;13.5;9.8;;;;;;;20.99;69.02;;;;;
2023/09/16 12:05:44;;;;;;;13.5;9.8;;;;;;;21.3;68.28;;;;;
2023/09/16 12:16:44;;;;;;;13.5;9.8;;;;;;;21.64;68.11;;;;;
2023/09/16 12:26:44;;;;;;;8.6;5.1;;;;;;;21.94;66.47;;;;;
2023/09/16 12:36:44;;;;;;;8.6;5.1;;;;;;;21.97;66.33;;;;;
2023/09/16 12:47:44;;;;;;;8.6;5.1;;;;;;;22.25;66.31;;;;;
2023/09/16 12:58:44;;;;;;;7.9;5.4;;;;;;;22.59;65.13;;;;;
2023/09/16 13:09:44;;;;;;;7.9;5.4;;;;;;;22.94;65.41;;;;;
2023/09/16 13:19:44;;;;;;;7.9;5.4;;;;;;;22.91;66.42;;;;;
2023/09/16 13:29:44;;;;;;;7.1;4.5;;;;;;;22.99;66.85;;;;;
2023/09/16 13:40:44;;;;;;;7.1;4.5;;;;;;;23.52;64.58;;;;;
2023/09/16 13:50:44;;;;;;;7.1;4.5;;;;;;;23.53;64.9;;;;;
2023/09/16 14:01:44;;;;;;;7.9;4.6;;;;;;;23.5;66;;;;;
2023/09/16 14:11:44;;;;;;;7.9;4.6;;;;;;;23.72;66.08;;;;;
2023/09/16 14:22:44;;;;;;;8.1;4.8;;;;;;;23.75;66.39;;;;;
2023/09/16 14:32:44;;;;;;;8.1;4.8;;;;;;;23.95;66.36;;;;;
2023/09/16 14:42:44;;;;;;;8.1;4.8;;;;;;;24.04;66.32;;;;;
2023/09/16 14:52:44;;;;;;;6.7;4.4;;;;;;;24.17;65.63;;;;;
2023/09/16 15:03:44;;;;;;;6.7;4.4;;;;;;;24.14;65.8;;;;;
2023/09/16 15:13:45;;;;;;;6.7;4.4;;;;;;;25.1;64.87;;;;;
2023/09/16 15:23:44;;;;;;;7.6;4.5;;;;;;;26.26;59.75;;;;;
2023/09/16 15:34:44;;;;;;;7.6;4.5;;;;;;;27.49;56.91;;;;;
2023/09/16 15:44:44;;;;;;;7.6;4.5;;;;;;;27.93;56.13;;;;;
2023/09/16 15:55:44;;;;;;;6.6;4.4;;;;;;;27.21;57.51;;;;;
2023/09/16 16:06:44;;;;;;;6.6;4.4;;;;;;;26.8;58.29;;;;;
2023/09/16 16:17:44;;;;;;;6.6;4.4;;;;;;;25.83;60.79;;;;;
2023/09/16 16:27:44;;;;;;;6.9;4.7;;;;;;;25.07;63.54;;;;;
2023/09/16 16:38:44;;;;;;;6.9;4.7;;;;;;;24.01;66.58;;;;;
2023/09/16 16:48:44;;;;;;;6.9;4.7;;;;;;;22.71;70.71;;;;;
2023/09/16 16:59:44;;;;;;;12.1;5.7;;;;;;;21.77;73.97;;;;;
2023/09/16 17:10:44;;;;;;;12.1;5.7;;;;;;;21.13;76.32;;;;;
2023/09/16 17:20:44;;;;;;;12.1;5.7;;;;;;;20.62;78.16;;;;;
2023/09/16 17:30:44;;;;;;;9.7;5.9;;;;;;;20.33;79.29;;;;;
2023/09/16 17:41:44;;;;;;;9.7;5.9;;;;;;;20.03;80.46;;;;;
2023/09/16 17:51:44;;;;;;;9.7;5.9;;;;;;;19.78;81.33;;;;;
2023/09/16 18:02:45;;;;;;;8.5;5.5;;;;;;;19.49;82.31;;;;;
2023/09/16 18:12:44;;;;;;;8.5;5.5;;;;;;;19.31;82.51;;;;;
2023/09/16 18:22:44;;;;;;;8.5;5.5;;;;;;;19.07;83.22;;;;;
2023/09/16 18:33:46;;;;;;;10.5;7;;;;;;;18.75;84.42;;;;;
2023/09/16 18:44:44;;;;;;;10.5;7;;;;;;;18.54;85.06;;;;;
2023/09/16 18:54:44;;;;;;;10.5;7.2;;;;;;;18.32;85.1;;;;;
2023/09/16 19:05:44;;;;;;;10.5;7.2;;;;;;;18.17;85.23;;;;;
2023/09/16 19:15:45;;;;;;;10.5;7.2;;;;;;;18;85.24;;;;;
2023/09/16 19:25:45;;;;;;;18;14.3;;;;;;;17.84;85.79;;;;;
2023/09/16 19:36:45;;;;;;;18;14.3;;;;;;;17.69;85.79;;;;;
2023/09/16 19:47:44;;;;;;;18;14.3;;;;;;;17.4;86.85;;;;;
2023/09/16 19:58:44;;;;;;;11.5;8.2;;;;;;;17.22;86.65;;;;;
2023/09/16 20:09:44;;;;;;;11.5;8.2;;;;;;;17;87.44;;;;;
2023/09/16 20:19:46;;;;;;;11.5;8.2;;;;;;;16.84;88.02;;;;;
2023/09/16 20:29:44;;;;;;;13.9;10.6;;;;;;;16.66;87.33;;;;;
2023/09/16 20:39:44;;;;;;;13.9;10.6;;;;;;;16.47;88.15;;;;;
2023/09/16 20:50:44;;;;;;;13.9;10.6;;;;;;;16.29;88.21;;;;;
2023/09/16 21:01:44;;;;;;;11;8.7;;;;;;;16.17;88.98;;;;;
2023/09/16 21:11:44;;;;;;;11;8.7;;;;;;;15.98;88.56;;;;;
2023/09/16 21:22:44;;;;;;;11;8.7;;;;;;;15.8;88.65;;;;;
2023/09/16 21:32:49;;;;;;;11.1;7.9;;;;;;;15.69;90.07;;;;;
2023/09/16 21:43:44;;;;;;;11.1;7.9;;;;;;;15.68;89.67;;;;;
2023/09/16 21:54:44;;;;;;;12.8;8.4;;;;;;;15.73;91.09;;;;;
2023/09/16 22:04:44;;;;;;;12.8;8.4;;;;;;;15.9;91.69;;;;;
2023/09/16 22:15:44;;;;;;;12.8;8.4;;;;;;;16.1;91.04;;;;;
2023/09/16 22:25:44;;;;;;;10.7;9;;;;;;;16.07;90.4;;;;;
2023/09/16 22:35:44;;;;;;;10.7;9;;;;;;;15.99;89.87;;;;;
2023/09/16 22:45:44;;;;;;;10.7;9;;;;;;;15.86;89.1;;;;;
2023/09/16 23:54:33;;;;;;;12.8;9.2;;;;;;;14.43;90.29;;;;;
